createdAt,value
2023-04-18T00:02:17.519Z,9.80
2023-04-18T00:04:47.838Z,9.80
2023-04-18T00:07:16.370Z,9.50
2023-04-18T00:09:44.227Z,8.60
2023-04-18T00:12:11.492Z,8.20
2023-04-18T00:14:38.891Z,9.80
2023-04-18T00:20:29.558Z,8.60
2023-04-18T00:22:56.644Z,8.20
2023-04-18T00:25:23.911Z,8.70
2023-04-18T00:27:51.042Z,7.70
2023-04-18T00:30:18.223Z,8.10
2023-04-18T00:32:45.392Z,8.70
2023-04-18T00:35:12.614Z,9.10
2023-04-18T00:37:39.739Z,9.40
2023-04-18T00:40:07.367Z,8.30
2023-04-18T00:42:34.522Z,8.30
2023-04-18T00:45:01.852Z,8.20
2023-04-18T00:47:29.065Z,8.10
2023-04-18T00:49:56.732Z,8.00
2023-04-18T00:52:27.301Z,8.10
2023-04-18T00:54:55.015Z,8.00
2023-04-18T00:57:22.770Z,9.70
2023-04-18T00:59:51.312Z,9.30
2023-04-18T01:02:19.378Z,8.30
2023-04-18T01:04:47.270Z,9.20
2023-04-18T01:07:15.275Z,9.10
2023-04-18T01:09:42.470Z,8.90
2023-04-18T01:12:09.629Z,8.80
2023-04-18T01:14:36.791Z,7.70
2023-04-18T01:17:03.977Z,10.70
2023-04-18T01:19:31.222Z,9.80
2023-04-18T01:22:13.495Z,9.00
2023-04-18T01:24:42.244Z,9.60
2023-04-18T01:27:16.166Z,8.30
2023-04-18T01:29:43.233Z,8.50
2023-04-18T01:32:10.336Z,9.10
2023-04-18T01:34:37.435Z,9.50
2023-04-18T01:37:06.311Z,15.80
2023-04-18T01:39:33.403Z,13.20
2023-04-18T01:42:02.242Z,11.00
2023-04-18T01:44:29.425Z,9.40
2023-04-18T01:46:56.512Z,10.20
2023-04-18T01:49:25.167Z,9.50
2023-04-18T01:51:52.142Z,10.20
2023-04-18T01:54:21.718Z,22.60
2023-04-18T01:56:48.914Z,19.90
2023-04-18T01:59:16.473Z,11.70
2023-04-18T02:01:44.902Z,11.40
2023-04-18T02:04:12.129Z,9.90
2023-04-18T02:06:39.549Z,10.20
2023-04-18T02:09:06.746Z,9.50
2023-04-18T02:11:33.862Z,9.90
2023-04-18T02:14:03.440Z,8.70
2023-04-18T02:16:30.612Z,8.90
2023-04-18T02:18:57.922Z,9.30
2023-04-18T02:21:25.057Z,7.90
2023-04-18T02:23:52.600Z,7.70
2023-04-18T02:26:22.696Z,8.30
2023-04-18T02:28:50.330Z,8.30
2023-04-18T02:31:17.651Z,9.80
2023-04-18T02:33:47.756Z,11.30
2023-04-18T02:36:15.060Z,10.40
2023-04-18T02:38:42.796Z,9.10
2023-04-18T02:41:15.151Z,10.60
2023-04-18T02:43:42.507Z,10.20
2023-04-18T02:46:10.157Z,10.10
2023-04-18T02:48:37.542Z,8.90
2023-04-18T02:51:06.864Z,9.00
2023-04-18T02:53:35.589Z,8.60
2023-04-18T02:56:02.957Z,9.40
2023-04-18T02:58:49.185Z,9.00
2023-04-18T03:01:37.258Z,10.30
2023-04-18T03:04:11.484Z,11.10
2023-04-18T03:06:43.319Z,11.00
2023-04-18T03:09:10.608Z,10.50
2023-04-18T03:11:42.257Z,10.40
2023-04-18T03:14:09.485Z,9.40
2023-04-18T03:16:49.059Z,10.10
2023-04-18T03:19:19.299Z,9.70
2023-04-18T03:21:46.503Z,9.20
2023-04-18T03:24:14.059Z,10.00
2023-04-18T03:26:41.830Z,9.10
2023-04-18T03:29:09.516Z,9.50
2023-04-18T03:31:36.673Z,9.90
2023-04-18T03:34:03.772Z,9.00
2023-04-18T03:36:31.484Z,9.80
2023-04-18T03:38:58.962Z,9.70
2023-04-18T03:41:26.293Z,8.80
2023-04-18T03:43:55.155Z,9.50
2023-04-18T03:46:22.453Z,9.90
2023-04-18T03:48:51.213Z,9.10
2023-04-18T03:51:18.562Z,9.60
2023-04-18T03:53:46.746Z,8.90
2023-04-18T03:56:13.941Z,9.50
2023-04-18T03:58:49.951Z,9.20
2023-04-18T04:01:17.272Z,9.50
2023-04-18T04:03:44.455Z,9.90
2023-04-18T04:06:12.091Z,9.90
2023-04-18T04:08:39.188Z,9.60
2023-04-18T04:11:06.405Z,9.60
2023-04-18T04:13:33.871Z,10.40
2023-04-18T04:16:01.599Z,11.30
2023-04-18T04:18:31.318Z,10.60
2023-04-18T04:21:00.871Z,10.90
2023-04-18T04:23:42.550Z,12.10
2023-04-18T04:26:10.240Z,12.80
2023-04-18T04:28:46.759Z,12.20
2023-04-18T04:31:16.485Z,10.30
2023-04-18T04:33:44.339Z,10.80
2023-04-18T04:36:18.870Z,12.30
2023-04-18T04:38:47.403Z,11.50
2023-04-18T04:41:15.313Z,10.50
2023-04-18T04:43:42.998Z,10.00
2023-04-18T04:46:13.937Z,11.70
2023-04-18T04:48:42.701Z,11.10
2023-04-18T04:51:09.875Z,11.30
2023-04-18T04:53:38.583Z,10.60
2023-04-18T04:56:07.232Z,9.50
2023-04-18T04:58:34.601Z,9.00
2023-04-18T05:01:18.711Z,9.80
2023-04-18T05:03:46.123Z,9.90
2023-04-18T05:06:20.509Z,9.30
2023-04-18T05:08:48.542Z,9.50
2023-04-18T05:11:16.383Z,9.40
2023-04-18T05:13:43.603Z,10.00
2023-04-18T05:16:11.299Z,9.90
2023-04-18T05:18:40.416Z,10.00
2023-04-18T05:21:07.868Z,9.60
2023-04-18T05:23:37.915Z,12.50
2023-04-18T05:26:05.668Z,11.90
2023-04-18T05:28:33.104Z,32.40
2023-04-18T05:31:03.378Z,24.40
2023-04-18T05:33:31.727Z,15.70
2023-04-18T05:35:59.081Z,16.70
2023-04-18T05:38:26.354Z,12.70
2023-04-18T05:40:55.734Z,10.80
2023-04-18T05:43:23.386Z,15.70
2023-04-18T05:45:52.577Z,11.50
2023-04-18T05:48:20.109Z,12.30
2023-04-18T05:50:47.261Z,12.80
2023-04-18T05:53:14.555Z,12.00
2023-04-18T05:55:41.840Z,11.10
2023-04-18T05:58:08.903Z,10.80
2023-04-18T06:00:36.276Z,10.30
2023-04-18T06:03:03.644Z,9.90
2023-04-18T06:05:31.367Z,10.40
2023-04-18T06:07:58.644Z,10.20
2023-04-18T06:10:25.867Z,10.60
2023-04-18T06:12:52.960Z,13.30
2023-04-18T06:15:20.037Z,24.80
2023-04-18T06:17:47.252Z,17.60
2023-04-18T06:20:14.429Z,17.20
2023-04-18T06:22:41.597Z,16.20
2023-04-18T06:25:10.160Z,12.80
2023-04-18T06:27:38.039Z,66.60
2023-04-18T06:30:06.176Z,22.60
2023-04-18T06:32:33.302Z,12.40
2023-04-18T06:35:00.513Z,17.70
2023-04-18T06:37:27.682Z,32.60
2023-04-18T06:39:54.752Z,26.90
2023-04-18T06:42:22.471Z,17.20
2023-04-18T06:44:50.314Z,13.00
2023-04-18T06:47:17.534Z,22.50
2023-04-18T06:49:44.677Z,18.30
2023-04-18T06:52:11.782Z,21.00
2023-04-18T06:54:38.861Z,19.10
2023-04-18T06:57:06.275Z,21.70
2023-04-18T06:59:33.424Z,20.60
2023-04-18T07:02:00.594Z,14.40
2023-04-18T07:04:27.835Z,16.70
2023-04-18T07:06:55.040Z,17.10
2023-04-18T07:09:22.839Z,17.30
2023-04-18T07:11:51.177Z,24.80
2023-04-18T07:14:20.027Z,17.50
2023-04-18T07:16:47.265Z,31.80
2023-04-18T07:19:14.480Z,18.00
2023-04-18T07:21:43.846Z,20.70
2023-04-18T07:24:12.378Z,17.10
2023-04-18T07:26:39.693Z,25.70
2023-04-18T07:29:06.775Z,29.30
2023-04-18T07:31:34.698Z,27.80
2023-04-18T07:34:01.845Z,22.10
2023-04-18T07:36:29.018Z,23.70
2023-04-18T07:38:56.140Z,19.60
2023-04-18T07:41:23.256Z,14.10
2023-04-18T07:43:50.427Z,21.60
2023-04-18T07:46:17.657Z,14.90
2023-04-18T07:48:44.952Z,14.50
2023-04-18T07:51:12.350Z,18.20
2023-04-18T07:53:41.256Z,14.90
2023-04-18T07:56:08.393Z,14.20
2023-04-18T07:58:35.674Z,12.90
2023-04-18T08:01:02.985Z,16.20
2023-04-18T08:03:30.366Z,15.90
2023-04-18T08:05:57.804Z,16.00
2023-04-18T08:08:25.108Z,12.40
2023-04-18T08:10:52.199Z,13.30
2023-04-18T08:13:19.396Z,11.20
2023-04-18T08:15:47.709Z,14.30
2023-04-18T08:18:14.841Z,12.40
2023-04-18T08:20:41.995Z,11.50
2023-04-18T08:23:12.222Z,12.30
2023-04-18T08:25:40.478Z,11.80
2023-04-18T08:28:07.655Z,12.00
2023-04-18T08:30:34.906Z,13.10
2023-04-18T08:33:02.370Z,12.60
2023-04-18T08:35:29.574Z,13.20
2023-04-18T08:37:56.892Z,9.60
2023-04-18T08:40:25.112Z,10.10
2023-04-18T08:42:54.114Z,8.20
2023-04-18T08:45:21.359Z,13.10
2023-04-18T08:47:48.611Z,13.90
2023-04-18T08:50:17.440Z,9.80
2023-04-18T08:52:50.281Z,10.90
2023-04-18T08:55:19.207Z,10.70
2023-04-18T08:57:47.585Z,10.00
2023-04-18T09:00:17.696Z,10.50
2023-04-18T09:02:47.003Z,11.90
2023-04-18T09:05:21.825Z,10.60
2023-04-18T09:07:51.651Z,7.60
2023-04-18T09:10:33.252Z,7.70
2023-04-18T09:13:03.529Z,7.90
2023-04-18T09:15:31.673Z,7.60
2023-04-18T09:18:02.460Z,7.80
2023-04-18T09:20:41.545Z,7.30
2023-04-18T09:23:11.121Z,8.80
2023-04-18T09:25:45.305Z,7.10
2023-04-18T09:28:28.059Z,5.60
2023-04-18T09:30:56.878Z,6.30
2023-04-18T09:33:33.965Z,7.50
2023-04-18T09:36:22.406Z,6.70
2023-04-18T09:38:53.730Z,6.00
2023-04-18T09:41:23.444Z,6.70
2023-04-18T09:44:07.748Z,6.60
2023-04-18T09:46:35.026Z,7.10
2023-04-18T09:49:02.332Z,6.40
2023-04-18T09:51:31.962Z,9.30
2023-04-18T09:54:00.170Z,10.40
2023-04-18T09:56:29.796Z,8.00
2023-04-18T09:59:08.236Z,7.90
2023-04-18T10:01:36.634Z,8.90
2023-04-18T10:04:06.759Z,5.50
2023-04-18T10:06:38.590Z,5.60
2023-04-18T10:09:08.959Z,5.20
2023-04-18T10:11:36.824Z,5.40
2023-04-18T10:14:08.130Z,5.20
2023-04-18T10:16:36.543Z,5.50
2023-04-18T10:19:27.090Z,5.10
2023-04-18T10:22:03.316Z,5.50
2023-04-18T10:24:49.535Z,4.90
2023-04-18T10:27:17.924Z,5.30
2023-04-18T10:29:51.331Z,5.30
2023-04-18T10:32:24.663Z,5.70
2023-04-18T10:34:54.350Z,5.40
2023-04-18T10:37:21.561Z,5.00
2023-04-18T10:40:03.035Z,4.50
2023-04-18T10:42:45.680Z,4.30
2023-04-18T10:45:22.404Z,5.10
2023-04-18T10:47:50.097Z,5.00
2023-04-18T10:50:17.733Z,4.50
2023-04-18T10:52:45.007Z,4.70
2023-04-18T10:55:19.139Z,4.00
2023-04-18T10:57:49.243Z,5.40
2023-04-18T11:00:18.845Z,4.80
2023-04-18T11:02:54.263Z,5.60
2023-04-18T11:07:49.868Z,8.40
2023-04-18T11:10:21.482Z,4.80
2023-04-18T11:12:49.003Z,6.50
2023-04-18T11:15:21.607Z,5.50
2023-04-18T11:18:00.269Z,6.60
2023-04-18T11:20:28.550Z,6.80
2023-04-18T11:22:58.489Z,5.00
2023-04-18T11:25:30.705Z,5.00
2023-04-18T11:28:02.421Z,5.20
2023-04-18T11:30:37.775Z,5.30
2023-04-18T11:33:08.456Z,6.30
2023-04-18T11:35:40.130Z,5.00
2023-04-18T11:38:08.524Z,6.00
2023-04-18T11:40:37.096Z,4.90
2023-04-18T11:43:06.644Z,6.50
2023-04-18T11:45:33.768Z,5.70
2023-04-18T11:48:01.514Z,6.00
2023-04-18T11:50:28.877Z,5.00
2023-04-18T11:52:56.480Z,5.00
2023-04-18T11:55:25.562Z,5.10
2023-04-18T11:57:54.757Z,7.30
2023-04-18T12:00:37.545Z,20.10
2023-04-18T12:03:08.123Z,16.70
2023-04-18T12:05:37.597Z,7.40
2023-04-18T12:08:06.949Z,5.60
2023-04-18T12:10:35.906Z,5.70
2023-04-18T12:13:07.903Z,6.20
2023-04-18T12:15:38.795Z,5.60
2023-04-18T12:18:08.490Z,4.10
2023-04-18T12:20:37.054Z,5.70
2023-04-18T12:23:04.688Z,5.60
2023-04-18T12:25:32.825Z,6.00
2023-04-18T12:28:20.017Z,7.80
2023-04-18T12:30:47.172Z,19.10
2023-04-18T12:33:14.309Z,24.20
2023-04-18T12:35:42.610Z,11.60
2023-04-18T12:38:09.759Z,5.40
2023-04-18T12:40:39.280Z,5.60
2023-04-18T12:43:06.956Z,4.60
2023-04-18T12:45:34.046Z,4.10
2023-04-18T12:48:01.223Z,4.80
2023-04-18T12:50:28.598Z,3.60
2023-04-18T12:52:59.637Z,4.20
2023-04-18T12:55:27.560Z,3.20
2023-04-18T12:57:55.524Z,4.30
2023-04-18T13:00:23.967Z,4.50
2023-04-18T13:02:52.841Z,5.90
2023-04-18T13:05:23.151Z,5.50
2023-04-18T13:07:56.365Z,6.90
2023-04-18T13:10:32.196Z,6.30
2023-04-18T13:12:59.323Z,4.90
2023-04-18T13:15:27.643Z,5.80
2023-04-18T13:17:56.697Z,5.50
2023-04-18T13:20:24.158Z,6.50
2023-04-18T13:22:51.332Z,4.10
2023-04-18T13:25:18.529Z,7.10
2023-04-18T13:27:46.008Z,5.00
2023-04-18T13:30:13.483Z,4.90
2023-04-18T13:32:41.008Z,6.30
2023-04-18T13:35:10.753Z,4.90
2023-04-18T13:37:38.707Z,4.40
2023-04-18T13:40:06.709Z,5.10
2023-04-18T13:42:35.922Z,6.40
2023-04-18T13:45:03.424Z,7.60
2023-04-18T13:47:30.643Z,9.70
2023-04-18T13:49:58.033Z,7.50
2023-04-18T13:52:26.250Z,11.60
2023-04-18T13:54:53.491Z,8.90
2023-04-18T13:57:21.061Z,5.50
2023-04-18T13:59:48.288Z,6.10
2023-04-18T14:02:15.922Z,5.40
2023-04-18T14:04:43.300Z,4.50
2023-04-18T14:07:10.803Z,5.10
2023-04-18T14:09:38.001Z,4.70
2023-04-18T14:12:05.416Z,4.50
2023-04-18T14:14:32.596Z,7.20
2023-04-18T14:16:59.798Z,4.60
2023-04-18T14:19:27.444Z,5.60
2023-04-18T14:21:54.657Z,6.10
2023-04-18T14:24:21.813Z,6.80
2023-04-18T14:26:48.891Z,5.40
2023-04-18T14:29:16.106Z,5.40
2023-04-18T14:31:43.473Z,6.70
2023-04-18T14:34:10.780Z,6.10
2023-04-18T14:36:37.943Z,9.00
2023-04-18T14:39:05.609Z,10.90
2023-04-18T14:41:33.085Z,6.80
2023-04-18T14:44:00.301Z,7.10
2023-04-18T14:46:28.478Z,7.70
2023-04-18T14:48:55.765Z,13.50
2023-04-18T14:51:23.810Z,17.10
2023-04-18T14:53:51.392Z,16.70
2023-04-18T14:56:21.250Z,11.30
2023-04-18T14:58:48.569Z,13.20
2023-04-18T15:01:17.622Z,31.60
2023-04-18T15:03:45.513Z,11.10
2023-04-18T15:06:12.957Z,8.30
2023-04-18T15:08:40.219Z,10.00
2023-04-18T15:11:08.309Z,14.70
2023-04-18T15:13:35.766Z,8.70
2023-04-18T15:16:03.389Z,7.00
2023-04-18T15:18:30.749Z,11.50
2023-04-18T15:21:00.116Z,15.60
2023-04-18T15:23:27.684Z,10.30
2023-04-18T15:25:54.909Z,14.80
2023-04-18T15:28:22.217Z,10.20
2023-04-18T15:30:49.324Z,7.90
2023-04-18T15:33:19.142Z,9.10
2023-04-18T15:35:48.131Z,20.20
2023-04-18T15:38:15.337Z,27.40
2023-04-18T15:40:43.624Z,16.40
2023-04-18T15:43:10.864Z,12.50
2023-04-18T15:45:38.096Z,13.30
2023-04-18T15:48:05.474Z,13.90
2023-04-18T15:50:33.939Z,18.00
2023-04-18T15:53:02.010Z,13.60
2023-04-18T15:55:29.243Z,14.60
2023-04-18T15:57:56.517Z,11.90
2023-04-18T16:00:24.119Z,11.60
2023-04-18T16:02:51.414Z,14.30
2023-04-18T16:05:18.653Z,12.90
2023-04-18T16:07:45.899Z,19.80
2023-04-18T16:10:15.252Z,21.60
2023-04-18T16:12:42.599Z,21.20
2023-04-18T16:15:10.381Z,23.30
2023-04-18T16:17:38.002Z,17.50
2023-04-18T16:20:06.361Z,14.80
2023-04-18T16:22:33.808Z,13.80
2023-04-18T16:25:00.928Z,12.00
2023-04-18T16:27:28.337Z,11.80
2023-04-18T16:29:55.396Z,10.50
2023-04-18T16:32:22.633Z,10.70
2023-04-18T16:34:49.935Z,9.40
2023-04-18T16:37:17.158Z,9.20
2023-04-18T16:39:44.207Z,9.20
2023-04-18T16:42:12.468Z,8.50
2023-04-18T16:44:41.230Z,12.60
2023-04-18T16:47:08.452Z,11.20
2023-04-18T16:49:35.852Z,11.90
2023-04-18T16:52:03.024Z,13.60
2023-04-18T16:54:30.150Z,10.40
2023-04-18T16:56:57.327Z,10.50
2023-04-18T16:59:24.463Z,10.40
2023-04-18T17:01:51.527Z,9.40
2023-04-18T17:04:18.769Z,8.10
2023-04-18T17:06:46.694Z,13.10
2023-04-18T17:09:14.772Z,10.30
2023-04-18T17:11:42.176Z,9.90
2023-04-18T17:14:09.622Z,11.40
2023-04-18T17:16:40.967Z,10.00
2023-04-18T17:19:09.040Z,39.80
2023-04-18T17:21:36.979Z,17.00
2023-04-18T17:24:06.781Z,13.00
2023-04-18T17:26:34.940Z,12.80
2023-04-18T17:29:04.313Z,11.10
2023-04-18T17:31:31.914Z,14.20
2023-04-18T17:33:59.712Z,74.20
2023-04-18T17:36:27.301Z,31.50
2023-04-18T17:38:54.504Z,17.00
2023-04-18T17:41:22.309Z,16.10
2023-04-18T17:43:53.188Z,14.70
2023-04-18T17:46:20.466Z,15.70
2023-04-18T17:48:47.542Z,14.60
2023-04-18T17:51:16.559Z,12.30
2023-04-18T17:53:43.676Z,11.80
2023-04-18T17:56:11.007Z,12.30
2023-04-18T17:58:38.181Z,10.60
2023-04-18T18:01:14.914Z,9.90
2023-04-18T18:03:43.130Z,28.30
2023-04-18T18:06:14.530Z,17.80
2023-04-18T18:08:43.429Z,14.80
2023-04-18T18:11:11.120Z,18.00
2023-04-18T18:13:40.962Z,18.80
2023-04-18T18:16:09.050Z,15.40
2023-04-18T18:18:36.977Z,15.10
2023-04-18T18:21:04.107Z,12.30
2023-04-18T18:23:31.401Z,15.10
2023-04-18T18:25:58.730Z,13.90
2023-04-18T18:28:26.097Z,16.50
2023-04-18T18:30:53.989Z,14.70
2023-04-18T18:33:21.271Z,20.00
2023-04-18T18:35:48.458Z,12.20
2023-04-18T18:38:15.720Z,14.60
2023-04-18T18:40:42.880Z,19.20
2023-04-18T18:43:09.992Z,21.60
2023-04-18T18:45:38.243Z,16.00
2023-04-18T18:48:07.339Z,19.00
2023-04-18T18:50:34.606Z,19.50
2023-04-18T18:53:01.988Z,14.70
2023-04-18T18:55:29.973Z,15.10
2023-04-18T18:57:57.127Z,15.80
2023-04-18T19:00:24.913Z,13.80
2023-04-18T19:02:52.279Z,11.00
2023-04-18T19:05:19.823Z,11.60
2023-04-18T19:07:46.877Z,10.40
2023-04-18T19:10:14.052Z,11.30
2023-04-18T19:12:41.352Z,8.90
2023-04-18T19:15:09.372Z,10.20
2023-04-18T19:17:36.649Z,9.80
2023-04-18T19:20:04.269Z,10.30
2023-04-18T19:22:31.361Z,15.80
2023-04-18T19:25:00.532Z,13.10
2023-04-18T19:27:27.685Z,12.20
2023-04-18T19:29:54.685Z,11.50
2023-04-18T19:32:22.024Z,11.70
2023-04-18T19:34:49.806Z,13.30
2023-04-18T19:37:16.939Z,15.20
2023-04-18T19:39:44.133Z,10.00
2023-04-18T19:42:11.354Z,9.90
2023-04-18T19:44:38.510Z,9.60
2023-04-18T19:47:05.761Z,11.40
2023-04-18T19:49:32.973Z,14.00
2023-04-18T19:52:00.109Z,11.10
2023-04-18T19:54:27.497Z,13.70
2023-04-18T19:56:54.693Z,89.60
2023-04-18T19:59:21.847Z,193.30
2023-04-18T20:01:48.976Z,225.30
2023-04-18T20:04:16.277Z,302.40
2023-04-18T20:06:43.769Z,491.30
2023-04-18T20:09:15.549Z,266.80
2023-04-18T20:11:43.596Z,146.90
2023-04-18T20:14:10.644Z,66.30
2023-04-18T20:16:39.101Z,82.90
2023-04-18T20:19:06.314Z,132.10
2023-04-18T20:21:33.387Z,94.60
2023-04-18T20:24:00.489Z,126.90
2023-04-18T20:26:27.627Z,126.50
2023-04-18T20:28:54.781Z,321.80
2023-04-18T20:31:21.862Z,343.30
2023-04-18T20:33:48.975Z,439.20
2023-04-18T20:36:17.729Z,385.70
2023-04-18T20:38:44.976Z,287.30
2023-04-18T20:41:15.039Z,106.10
2023-04-18T20:43:43.524Z,49.50
2023-04-18T20:46:14.161Z,108.30
2023-04-18T20:48:41.280Z,99.10
2023-04-18T20:51:08.470Z,171.60
2023-04-18T20:53:35.818Z,54.60
2023-04-18T20:56:03.216Z,50.50
2023-04-18T20:58:30.342Z,21.20
2023-04-18T21:00:57.414Z,23.10
2023-04-18T21:03:24.703Z,19.50
2023-04-18T21:05:52.650Z,23.50
2023-04-18T21:08:19.798Z,18.40
2023-04-18T21:10:46.906Z,46.00
2023-04-18T21:13:14.171Z,44.70
2023-04-18T21:15:42.720Z,28.40
2023-04-18T21:18:09.987Z,24.50
2023-04-18T21:20:38.678Z,15.80
2023-04-18T21:23:06.527Z,9.60
2023-04-18T21:25:33.650Z,8.00
2023-04-18T21:28:00.898Z,7.80
2023-04-18T21:30:28.001Z,9.00
2023-04-18T21:32:55.210Z,7.90
2023-04-18T21:35:24.229Z,7.40
2023-04-18T21:37:51.939Z,8.40
2023-04-18T21:40:19.114Z,8.50
2023-04-18T21:42:47.680Z,8.80
2023-04-18T21:45:16.429Z,8.00
2023-04-18T21:47:44.042Z,7.00
2023-04-18T21:50:11.597Z,7.90
2023-04-18T21:52:38.762Z,9.20
2023-04-18T21:55:06.258Z,8.00
2023-04-18T21:57:33.431Z,9.60
2023-04-18T22:00:00.592Z,8.40
2023-04-18T22:02:27.912Z,9.30
2023-04-18T22:04:55.400Z,7.80
2023-04-18T22:07:24.716Z,8.70
2023-04-18T22:09:51.848Z,16.00
2023-04-18T22:12:19.348Z,11.10
2023-04-18T22:14:48.613Z,6.60
2023-04-18T22:17:15.814Z,9.90
2023-04-18T22:19:44.646Z,7.80
2023-04-18T22:22:11.936Z,8.10
2023-04-18T22:24:39.040Z,7.60
2023-04-18T22:27:06.225Z,8.20
2023-04-18T22:29:33.331Z,7.40
2023-04-18T22:32:00.495Z,7.40
2023-04-18T22:34:27.611Z,8.70
2023-04-18T22:36:54.771Z,7.10
2023-04-18T22:39:21.904Z,7.80
2023-04-18T22:41:48.945Z,9.20
2023-04-18T22:44:16.333Z,7.50
2023-04-18T22:46:43.801Z,8.20
2023-04-18T22:49:10.894Z,7.80
2023-04-18T22:51:38.333Z,7.50
2023-04-18T22:54:05.774Z,6.50
2023-04-18T22:56:32.890Z,7.00
2023-04-18T22:59:00.055Z,6.80
2023-04-18T23:01:27.458Z,6.90
2023-04-18T23:03:54.777Z,6.40
2023-04-18T23:06:22.376Z,6.40
2023-04-18T23:08:49.960Z,6.50
2023-04-18T23:11:17.139Z,6.80
2023-04-18T23:13:44.218Z,7.20
2023-04-18T23:16:11.377Z,6.10
2023-04-18T23:18:38.489Z,7.30
2023-04-18T23:21:06.108Z,7.50
2023-04-18T23:23:33.285Z,9.20
2023-04-18T23:26:00.702Z,6.60
2023-04-18T23:28:27.874Z,6.70
2023-04-18T23:30:54.963Z,6.90
2023-04-18T23:33:22.506Z,6.90
2023-04-18T23:35:49.595Z,6.70
2023-04-18T23:38:16.757Z,6.90
2023-04-18T23:40:43.899Z,5.70
2023-04-18T23:43:10.979Z,4.70
2023-04-18T23:45:38.102Z,4.90
2023-04-18T23:48:05.428Z,4.60
2023-04-18T23:50:32.994Z,5.70
2023-04-18T23:53:00.117Z,6.30
2023-04-18T23:55:27.465Z,5.90
2023-04-18T23:57:54.727Z,4.60
